sensor_id;sensor_type;location;lat;lon;timestamp;P1;durP1;ratioP1;P2;durP2;ratioP2
54197;SDS011;40105;52.366;17.000;2023-05-07T00:00:22;7.67;;;4.23;;
54197;SDS011;40105;52.366;17.000;2023-05-07T00:02:48;15.30;;;4.70;;
54197;SDS011;40105;52.366;17.000;2023-05-07T00:05:13;8.80;;;5.18;;
54197;SDS011;40105;52.366;17.000;2023-05-07T00:07:38;8.73;;;4.87;;
54197;SDS011;40105;52.366;17.000;2023-05-07T00:10:03;8.53;;;4.67;;
54197;SDS011;40105;52.366;17.000;2023-05-07T00:12:29;9.52;;;4.13;;
54197;SDS011;40105;52.366;17.000;2023-05-07T00:14:56;11.77;;;5.00;;
54197;SDS011;40105;52.366;17.000;2023-05-07T00:17:22;12.60;;;5.10;;
54197;SDS011;40105;52.366;17.000;2023-05-07T00:19:47;14.23;;;5.20;;
54197;SDS011;40105;52.366;17.000;2023-05-07T00:22:12;6.97;;;4.15;;
54197;SDS011;40105;52.366;17.000;2023-05-07T00:24:37;13.47;;;4.93;;
54197;SDS011;40105;52.366;17.000;2023-05-07T00:27:02;12.30;;;4.20;;
54197;SDS011;40105;52.366;17.000;2023-05-07T00:29:28;11.40;;;3.70;;
54197;SDS011;40105;52.366;17.000;2023-05-07T00:31:53;9.87;;;4.53;;
54197;SDS011;40105;52.366;17.000;2023-05-07T00:34:19;10.50;;;5.45;;
54197;SDS011;40105;52.366;17.000;2023-05-07T00:36:45;10.82;;;4.65;;
54197;SDS011;40105;52.366;17.000;2023-05-07T00:39:10;7.30;;;3.80;;
54197;SDS011;40105;52.366;17.000;2023-05-07T00:41:35;10.88;;;3.60;;
54197;SDS011;40105;52.366;17.000;2023-05-07T00:44:00;8.03;;;4.27;;
54197;SDS011;40105;52.366;17.000;2023-05-07T00:46:27;9.38;;;4.30;;
54197;SDS011;40105;52.366;17.000;2023-05-07T00:48:52;15.67;;;4.33;;
54197;SDS011;40105;52.366;17.000;2023-05-07T00:51:18;10.20;;;3.95;;
54197;SDS011;40105;52.366;17.000;2023-05-07T00:53:44;7.73;;;3.93;;
54197;SDS011;40105;52.366;17.000;2023-05-07T00:56:09;8.38;;;3.70;;
54197;SDS011;40105;52.366;17.000;2023-05-07T00:58:35;10.13;;;3.70;;
54197;SDS011;40105;52.366;17.000;2023-05-07T01:01:00;6.75;;;4.03;;
54197;SDS011;40105;52.366;17.000;2023-05-07T01:03:25;6.23;;;3.50;;
54197;SDS011;40105;52.366;17.000;2023-05-07T01:05:50;14.17;;;5.07;;
54197;SDS011;40105;52.366;17.000;2023-05-07T01:08:17;13.88;;;4.45;;
54197;SDS011;40105;52.366;17.000;2023-05-07T01:10:43;8.77;;;4.60;;
54197;SDS011;40105;52.366;17.000;2023-05-07T01:13:09;9.02;;;3.83;;
54197;SDS011;40105;52.366;17.000;2023-05-07T01:15:35;8.43;;;4.72;;
54197;SDS011;40105;52.366;17.000;2023-05-07T01:18:00;9.15;;;4.00;;
54197;SDS011;40105;52.366;17.000;2023-05-07T01:20:26;8.60;;;4.38;;
54197;SDS011;40105;52.366;17.000;2023-05-07T01:22:52;12.10;;;4.68;;
54197;SDS011;40105;52.366;17.000;2023-05-07T01:25:18;12.07;;;5.30;;
54197;SDS011;40105;52.366;17.000;2023-05-07T01:27:43;10.75;;;4.60;;
54197;SDS011;40105;52.366;17.000;2023-05-07T01:30:08;13.33;;;5.23;;
54197;SDS011;40105;52.366;17.000;2023-05-07T01:32:41;11.02;;;5.47;;
54197;SDS011;40105;52.366;17.000;2023-05-07T01:35:07;16.52;;;5.97;;
54197;SDS011;40105;52.366;17.000;2023-05-07T01:37:34;9.30;;;4.72;;
54197;SDS011;40105;52.366;17.000;2023-05-07T01:40:00;9.95;;;5.22;;
54197;SDS011;40105;52.366;17.000;2023-05-07T01:42:26;13.68;;;5.35;;
54197;SDS011;40105;52.366;17.000;2023-05-07T01:44:51;16.77;;;5.63;;
54197;SDS011;40105;52.366;17.000;2023-05-07T01:47:16;11.07;;;5.93;;
54197;SDS011;40105;52.366;17.000;2023-05-07T01:49:41;10.63;;;5.63;;
54197;SDS011;40105;52.366;17.000;2023-05-07T01:52:07;11.25;;;5.75;;
54197;SDS011;40105;52.366;17.000;2023-05-07T01:54:33;13.50;;;6.30;;
54197;SDS011;40105;52.366;17.000;2023-05-07T01:56:58;10.47;;;5.87;;
54197;SDS011;40105;52.366;17.000;2023-05-07T01:59:23;21.63;;;7.17;;
54197;SDS011;40105;52.366;17.000;2023-05-07T02:01:48;16.80;;;7.50;;
54197;SDS011;40105;52.366;17.000;2023-05-07T02:04:13;14.37;;;7.03;;
54197;SDS011;40105;52.366;17.000;2023-05-07T02:06:39;16.43;;;6.87;;
54197;SDS011;40105;52.366;17.000;2023-05-07T02:09:04;16.87;;;8.03;;
54197;SDS011;40105;52.366;17.000;2023-05-07T02:11:29;16.67;;;8.40;;
54197;SDS011;40105;52.366;17.000;2023-05-07T02:13:55;12.85;;;7.00;;
54197;SDS011;40105;52.366;17.000;2023-05-07T02:16:20;17.00;;;7.60;;
54197;SDS011;40105;52.366;17.000;2023-05-07T02:18:46;18.85;;;8.38;;
54197;SDS011;40105;52.366;17.000;2023-05-07T02:21:11;12.30;;;6.78;;
54197;SDS011;40105;52.366;17.000;2023-05-07T02:23:36;17.77;;;8.57;;
54197;SDS011;40105;52.366;17.000;2023-05-07T02:26:01;14.00;;;7.60;;
54197;SDS011;40105;52.366;17.000;2023-05-07T02:28:27;13.50;;;7.10;;
54197;SDS011;40105;52.366;17.000;2023-05-07T02:30:52;18.63;;;9.37;;
54197;SDS011;40105;52.366;17.000;2023-05-07T02:33:17;15.17;;;6.90;;
54197;SDS011;40105;52.366;17.000;2023-05-07T02:35:42;16.97;;;8.67;;
54197;SDS011;40105;52.366;17.000;2023-05-07T02:38:07;18.87;;;8.60;;
54197;SDS011;40105;52.366;17.000;2023-05-07T02:40:35;25.55;;;8.70;;
54197;SDS011;40105;52.366;17.000;2023-05-07T02:43:03;15.32;;;7.68;;
54197;SDS011;40105;52.366;17.000;2023-05-07T02:45:28;21.93;;;8.33;;
54197;SDS011;40105;52.366;17.000;2023-05-07T02:47:53;18.20;;;9.63;;
54197;SDS011;40105;52.366;17.000;2023-05-07T02:50:20;18.60;;;8.63;;
54197;SDS011;40105;52.366;17.000;2023-05-07T02:52:45;13.97;;;8.07;;
54197;SDS011;40105;52.366;17.000;2023-05-07T02:55:10;16.17;;;8.20;;
54197;SDS011;40105;52.366;17.000;2023-05-07T02:57:35;13.60;;;7.75;;
54197;SDS011;40105;52.366;17.000;2023-05-07T03:00:09;18.77;;;6.93;;
54197;SDS011;40105;52.366;17.000;2023-05-07T03:02:34;17.20;;;8.15;;
54197;SDS011;40105;52.366;17.000;2023-05-07T03:05:00;25.87;;;8.93;;
54197;SDS011;40105;52.366;17.000;2023-05-07T03:07:25;16.63;;;7.70;;
54197;SDS011;40105;52.366;17.000;2023-05-07T03:09:50;19.33;;;8.70;;
54197;SDS011;40105;52.366;17.000;2023-05-07T03:12:15;15.33;;;8.40;;
54197;SDS011;40105;52.366;17.000;2023-05-07T03:14:40;49.88;;;9.75;;
54197;SDS011;40105;52.366;17.000;2023-05-07T03:17:05;19.98;;;10.50;;
54197;SDS011;40105;52.366;17.000;2023-05-07T03:19:31;25.83;;;9.97;;
54197;SDS011;40105;52.366;17.000;2023-05-07T03:21:56;17.77;;;8.90;;
54197;SDS011;40105;52.366;17.000;2023-05-07T03:24:21;19.30;;;9.37;;
54197;SDS011;40105;52.366;17.000;2023-05-07T03:26:46;17.10;;;9.20;;
54197;SDS011;40105;52.366;17.000;2023-05-07T03:29:11;21.90;;;10.30;;
54197;SDS011;40105;52.366;17.000;2023-05-07T03:31:36;21.67;;;9.57;;
54197;SDS011;40105;52.366;17.000;2023-05-07T03:34:02;16.97;;;9.23;;
54197;SDS011;40105;52.366;17.000;2023-05-07T03:36:27;19.65;;;8.95;;
54197;SDS011;40105;52.366;17.000;2023-05-07T03:38:52;18.25;;;9.35;;
54197;SDS011;40105;52.366;17.000;2023-05-07T03:41:17;24.17;;;8.43;;
54197;SDS011;40105;52.366;17.000;2023-05-07T03:43:42;18.93;;;9.10;;
54197;SDS011;40105;52.366;17.000;2023-05-07T03:46:08;18.60;;;8.10;;
54197;SDS011;40105;52.366;17.000;2023-05-07T03:48:33;18.23;;;8.90;;
54197;SDS011;40105;52.366;17.000;2023-05-07T03:50:58;17.05;;;9.20;;
54197;SDS011;40105;52.366;17.000;2023-05-07T03:53:24;17.27;;;8.30;;
54197;SDS011;40105;52.366;17.000;2023-05-07T03:55:49;28.27;;;9.77;;
54197;SDS011;40105;52.366;17.000;2023-05-07T03:58:14;16.58;;;8.18;;
54197;SDS011;40105;52.366;17.000;2023-05-07T04:00:40;18.50;;;8.32;;
54197;SDS011;40105;52.366;17.000;2023-05-07T04:03:05;20.35;;;8.70;;
54197;SDS011;40105;52.366;17.000;2023-05-07T04:05:31;21.13;;;9.03;;
54197;SDS011;40105;52.366;17.000;2023-05-07T04:07:57;20.10;;;7.80;;
54197;SDS011;40105;52.366;17.000;2023-05-07T04:10:23;17.25;;;8.30;;
54197;SDS011;40105;52.366;17.000;2023-05-07T04:12:48;17.70;;;9.33;;
54197;SDS011;40105;52.366;17.000;2023-05-07T04:15:13;17.77;;;8.67;;
54197;SDS011;40105;52.366;17.000;2023-05-07T04:17:38;17.93;;;7.73;;
54197;SDS011;40105;52.366;17.000;2023-05-07T04:20:03;14.70;;;7.97;;
54197;SDS011;40105;52.366;17.000;2023-05-07T04:22:29;19.10;;;8.38;;
54197;SDS011;40105;52.366;17.000;2023-05-07T04:24:54;17.55;;;7.60;;
54197;SDS011;40105;52.366;17.000;2023-05-07T04:27:19;18.40;;;8.53;;
54197;SDS011;40105;52.366;17.000;2023-05-07T04:29:45;11.93;;;7.57;;
54197;SDS011;40105;52.366;17.000;2023-05-07T04:32:12;16.33;;;8.15;;
54197;SDS011;40105;52.366;17.000;2023-05-07T04:34:37;17.10;;;8.55;;
54197;SDS011;40105;52.366;17.000;2023-05-07T04:37:02;14.20;;;7.10;;
54197;SDS011;40105;52.366;17.000;2023-05-07T04:39:27;16.53;;;7.33;;
54197;SDS011;40105;52.366;17.000;2023-05-07T04:41:53;20.70;;;8.33;;
54197;SDS011;40105;52.366;17.000;2023-05-07T04:44:18;14.10;;;7.87;;
54197;SDS011;40105;52.366;17.000;2023-05-07T04:46:43;18.83;;;8.05;;
54197;SDS011;40105;52.366;17.000;2023-05-07T04:49:08;17.20;;;8.67;;
54197;SDS011;40105;52.366;17.000;2023-05-07T04:51:33;13.47;;;7.83;;
54197;SDS011;40105;52.366;17.000;2023-05-07T04:53:58;15.33;;;7.63;;
54197;SDS011;40105;52.366;17.000;2023-05-07T04:56:24;16.83;;;8.83;;
54197;SDS011;40105;52.366;17.000;2023-05-07T04:58:49;17.33;;;7.80;;
54197;SDS011;40105;52.366;17.000;2023-05-07T05:01:14;18.87;;;7.30;;
54197;SDS011;40105;52.366;17.000;2023-05-07T05:03:39;16.48;;;6.88;;
54197;SDS011;40105;52.366;17.000;2023-05-07T05:06:05;13.47;;;5.70;;
54197;SDS011;40105;52.366;17.000;2023-05-07T05:08:30;20.27;;;7.05;;
54197;SDS011;40105;52.366;17.000;2023-05-07T05:10:56;11.77;;;5.68;;
54197;SDS011;40105;52.366;17.000;2023-05-07T05:13:21;18.03;;;6.40;;
54197;SDS011;40105;52.366;17.000;2023-05-07T05:15:46;14.13;;;6.60;;
54197;SDS011;40105;52.366;17.000;2023-05-07T05:18:11;14.80;;;5.03;;
54197;SDS011;40105;52.366;17.000;2023-05-07T05:20:36;10.10;;;5.57;;
54197;SDS011;40105;52.366;17.000;2023-05-07T05:23:01;8.77;;;4.60;;
54197;SDS011;40105;52.366;17.000;2023-05-07T05:25:27;8.33;;;5.00;;
54197;SDS011;40105;52.366;17.000;2023-05-07T05:27:53;10.63;;;5.20;;
54197;SDS011;40105;52.366;17.000;2023-05-07T05:30:18;10.87;;;4.90;;
54197;SDS011;40105;52.366;17.000;2023-05-07T05:32:43;8.87;;;4.43;;
54197;SDS011;40105;52.366;17.000;2023-05-07T05:35:08;10.40;;;5.07;;
54197;SDS011;40105;52.366;17.000;2023-05-07T05:37:33;8.70;;;3.97;;
54197;SDS011;40105;52.366;17.000;2023-05-07T05:39:59;8.77;;;3.47;;
54197;SDS011;40105;52.366;17.000;2023-05-07T05:42:24;9.67;;;3.87;;
54197;SDS011;40105;52.366;17.000;2023-05-07T05:44:49;10.55;;;3.85;;
54197;SDS011;40105;52.366;17.000;2023-05-07T05:47:14;7.33;;;3.60;;
54197;SDS011;40105;52.366;17.000;2023-05-07T05:49:40;6.73;;;3.60;;
54197;SDS011;40105;52.366;17.000;2023-05-07T05:52:05;10.55;;;4.60;;
54197;SDS011;40105;52.366;17.000;2023-05-07T05:54:30;8.87;;;3.70;;
54197;SDS011;40105;52.366;17.000;2023-05-07T05:56:55;10.40;;;4.43;;
54197;SDS011;40105;52.366;17.000;2023-05-07T05:59:20;15.70;;;3.63;;
54197;SDS011;40105;52.366;17.000;2023-05-07T06:01:46;5.60;;;3.45;;
54197;SDS011;40105;52.366;17.000;2023-05-07T06:04:11;9.15;;;3.65;;
54197;SDS011;40105;52.366;17.000;2023-05-07T06:06:36;9.70;;;3.27;;
54197;SDS011;40105;52.366;17.000;2023-05-07T06:09:01;11.77;;;3.08;;
54197;SDS011;40105;52.366;17.000;2023-05-07T06:11:27;6.00;;;2.87;;
54197;SDS011;40105;52.366;17.000;2023-05-07T06:13:52;10.30;;;2.93;;
54197;SDS011;40105;52.366;17.000;2023-05-07T06:16:17;6.30;;;3.10;;
54197;SDS011;40105;52.366;17.000;2023-05-07T06:18:42;7.47;;;3.10;;
54197;SDS011;40105;52.366;17.000;2023-05-07T06:21:09;8.07;;;3.40;;
54197;SDS011;40105;52.366;17.000;2023-05-07T06:23:34;6.45;;;2.90;;
54197;SDS011;40105;52.366;17.000;2023-05-07T06:26:00;7.57;;;3.25;;
54197;SDS011;40105;52.366;17.000;2023-05-07T06:28:25;9.60;;;3.37;;
54197;SDS011;40105;52.366;17.000;2023-05-07T06:30:50;7.33;;;2.97;;
54197;SDS011;40105;52.366;17.000;2023-05-07T06:33:15;4.80;;;2.60;;
54197;SDS011;40105;52.366;17.000;2023-05-07T06:35:41;5.30;;;2.83;;
54197;SDS011;40105;52.366;17.000;2023-05-07T06:38:07;6.40;;;2.92;;
54197;SDS011;40105;52.366;17.000;2023-05-07T06:40:32;4.20;;;2.30;;
54197;SDS011;40105;52.366;17.000;2023-05-07T06:42:57;6.13;;;2.53;;
54197;SDS011;40105;52.366;17.000;2023-05-07T06:45:23;3.50;;;2.20;;
54197;SDS011;40105;52.366;17.000;2023-05-07T06:47:48;5.10;;;2.28;;
54197;SDS011;40105;52.366;17.000;2023-05-07T06:50:14;7.17;;;2.03;;
54197;SDS011;40105;52.366;17.000;2023-05-07T06:52:41;7.90;;;2.08;;
54197;SDS011;40105;52.366;17.000;2023-05-07T06:55:06;3.50;;;1.70;;
54197;SDS011;40105;52.366;17.000;2023-05-07T06:57:32;2.63;;;1.52;;
54197;SDS011;40105;52.366;17.000;2023-05-07T06:59:57;9.03;;;2.10;;
54197;SDS011;40105;52.366;17.000;2023-05-07T07:02:22;3.50;;;1.20;;
54197;SDS011;40105;52.366;17.000;2023-05-07T07:04:47;3.33;;;1.73;;
54197;SDS011;40105;52.366;17.000;2023-05-07T07:07:12;12.80;;;1.70;;
54197;SDS011;40105;52.366;17.000;2023-05-07T07:09:37;4.83;;;1.87;;
54197;SDS011;40105;52.366;17.000;2023-05-07T07:12:03;2.00;;;1.30;;
54197;SDS011;40105;52.366;17.000;2023-05-07T07:14:28;3.50;;;1.60;;
54197;SDS011;40105;52.366;17.000;2023-05-07T07:16:53;4.88;;;1.60;;
54197;SDS011;40105;52.366;17.000;2023-05-07T07:19:18;2.60;;;1.27;;
54197;SDS011;40105;52.366;17.000;2023-05-07T07:21:45;3.05;;;1.40;;
54197;SDS011;40105;52.366;17.000;2023-05-07T07:24:10;3.67;;;1.40;;
54197;SDS011;40105;52.366;17.000;2023-05-07T07:26:35;7.77;;;2.00;;
54197;SDS011;40105;52.366;17.000;2023-05-07T07:29:00;2.87;;;1.20;;
54197;SDS011;40105;52.366;17.000;2023-05-07T07:31:25;4.38;;;1.75;;
54197;SDS011;40105;52.366;17.000;2023-05-07T07:33:51;1.97;;;1.27;;
54197;SDS011;40105;52.366;17.000;2023-05-07T07:36:25;3.60;;;1.60;;
54197;SDS011;40105;52.366;17.000;2023-05-07T07:38:52;3.53;;;1.70;;
54197;SDS011;40105;52.366;17.000;2023-05-07T07:41:17;3.70;;;1.92;;
54197;SDS011;40105;52.366;17.000;2023-05-07T07:43:43;3.23;;;1.67;;
54197;SDS011;40105;52.366;17.000;2023-05-07T07:46:08;5.47;;;1.53;;
54197;SDS011;40105;52.366;17.000;2023-05-07T07:48:33;4.33;;;1.90;;
54197;SDS011;40105;52.366;17.000;2023-05-07T07:50:58;3.50;;;1.57;;
54197;SDS011;40105;52.366;17.000;2023-05-07T07:53:23;2.80;;;1.58;;
54197;SDS011;40105;52.366;17.000;2023-05-07T07:55:48;6.87;;;2.13;;
54197;SDS011;40105;52.366;17.000;2023-05-07T07:58:14;4.03;;;2.10;;
54197;SDS011;40105;52.366;17.000;2023-05-07T08:00:39;6.80;;;1.80;;
54197;SDS011;40105;52.366;17.000;2023-05-07T08:03:04;4.77;;;2.13;;
54197;SDS011;40105;52.366;17.000;2023-05-07T08:05:30;2.53;;;1.60;;
54197;SDS011;40105;52.366;17.000;2023-05-07T08:07:55;4.83;;;1.77;;
54197;SDS011;40105;52.366;17.000;2023-05-07T08:10:21;2.47;;;1.37;;
54197;SDS011;40105;52.366;17.000;2023-05-07T08:12:49;3.72;;;1.73;;
54197;SDS011;40105;52.366;17.000;2023-05-07T08:15:14;3.53;;;1.98;;
54197;SDS011;40105;52.366;17.000;2023-05-07T08:17:39;5.63;;;2.03;;
54197;SDS011;40105;52.366;17.000;2023-05-07T08:20:05;7.80;;;1.88;;
54197;SDS011;40105;52.366;17.000;2023-05-07T08:22:31;3.28;;;1.73;;
54197;SDS011;40105;52.366;17.000;2023-05-07T08:24:56;4.80;;;1.80;;
54197;SDS011;40105;52.366;17.000;2023-05-07T08:27:21;4.93;;;1.73;;
54197;SDS011;40105;52.366;17.000;2023-05-07T08:29:46;1.93;;;1.10;;
54197;SDS011;40105;52.366;17.000;2023-05-07T08:32:12;5.72;;;2.28;;
54197;SDS011;40105;52.366;17.000;2023-05-07T08:34:38;1.43;;;0.97;;
54197;SDS011;40105;52.366;17.000;2023-05-07T08:37:04;8.90;;;1.70;;
54197;SDS011;40105;52.366;17.000;2023-05-07T08:39:29;5.27;;;2.17;;
54197;SDS011;40105;52.366;17.000;2023-05-07T08:41:54;2.90;;;1.60;;
54197;SDS011;40105;52.366;17.000;2023-05-07T08:44:20;2.72;;;1.58;;
54197;SDS011;40105;52.366;17.000;2023-05-07T08:46:47;2.63;;;1.20;;
54197;SDS011;40105;52.366;17.000;2023-05-07T08:49:13;7.90;;;1.85;;
54197;SDS011;40105;52.366;17.000;2023-05-07T08:51:38;4.90;;;1.50;;
54197;SDS011;40105;52.366;17.000;2023-05-07T08:54:03;5.97;;;2.03;;
54197;SDS011;40105;52.366;17.000;2023-05-07T08:56:29;5.07;;;1.70;;
54197;SDS011;40105;52.366;17.000;2023-05-07T08:58:55;4.03;;;1.87;;
54197;SDS011;40105;52.366;17.000;2023-05-07T09:01:23;3.38;;;1.35;;
54197;SDS011;40105;52.366;17.000;2023-05-07T09:03:49;3.35;;;1.92;;
54197;SDS011;40105;52.366;17.000;2023-05-07T09:06:14;6.68;;;2.03;;
54197;SDS011;40105;52.366;17.000;2023-05-07T09:08:39;4.47;;;2.10;;
54197;SDS011;40105;52.366;17.000;2023-05-07T09:11:05;9.20;;;2.17;;
54197;SDS011;40105;52.366;17.000;2023-05-07T09:13:30;4.55;;;2.20;;
54197;SDS011;40105;52.366;17.000;2023-05-07T09:15:55;5.90;;;1.73;;
54197;SDS011;40105;52.366;17.000;2023-05-07T09:18:21;4.05;;;1.85;;
54197;SDS011;40105;52.366;17.000;2023-05-07T09:20:46;3.17;;;1.65;;
54197;SDS011;40105;52.366;17.000;2023-05-07T09:23:11;3.37;;;1.73;;
54197;SDS011;40105;52.366;17.000;2023-05-07T09:25:36;3.60;;;1.97;;
54197;SDS011;40105;52.366;17.000;2023-05-07T09:28:02;3.63;;;1.98;;
54197;SDS011;40105;52.366;17.000;2023-05-07T09:30:28;5.88;;;1.80;;
54197;SDS011;40105;52.366;17.000;2023-05-07T09:32:54;3.50;;;1.95;;
54197;SDS011;40105;52.366;17.000;2023-05-07T09:35:19;6.77;;;1.90;;
54197;SDS011;40105;52.366;17.000;2023-05-07T09:37:46;7.10;;;1.63;;
54197;SDS011;40105;52.366;17.000;2023-05-07T09:40:30;7.50;;;1.83;;
54197;SDS011;40105;52.366;17.000;2023-05-07T09:42:55;4.90;;;1.98;;
54197;SDS011;40105;52.366;17.000;2023-05-07T09:45:27;3.63;;;1.45;;
54197;SDS011;40105;52.366;17.000;2023-05-07T09:50:17;2.80;;;1.73;;
54197;SDS011;40105;52.366;17.000;2023-05-07T09:52:44;6.15;;;2.05;;
54197;SDS011;40105;52.366;17.000;2023-05-07T09:55:09;2.75;;;1.40;;
54197;SDS011;40105;52.366;17.000;2023-05-07T09:57:35;3.58;;;2.05;;
54197;SDS011;40105;52.366;17.000;2023-05-07T10:00:01;2.65;;;1.55;;
54197;SDS011;40105;52.366;17.000;2023-05-07T10:02:29;5.88;;;2.42;;
54197;SDS011;40105;52.366;17.000;2023-05-07T10:04:55;5.10;;;1.90;;
54197;SDS011;40105;52.366;17.000;2023-05-07T10:07:21;2.65;;;1.40;;
54197;SDS011;40105;52.366;17.000;2023-05-07T10:09:46;1.95;;;1.17;;
54197;SDS011;40105;52.366;17.000;2023-05-07T10:12:12;7.28;;;1.45;;
54197;SDS011;40105;52.366;17.000;2023-05-07T10:14:37;4.95;;;1.65;;
54197;SDS011;40105;52.366;17.000;2023-05-07T10:17:02;3.53;;;1.53;;
54197;SDS011;40105;52.366;17.000;2023-05-07T10:19:27;2.60;;;1.50;;
54197;SDS011;40105;52.366;17.000;2023-05-07T10:21:54;7.10;;;2.20;;
54197;SDS011;40105;52.366;17.000;2023-05-07T10:24:22;2.72;;;1.60;;
54197;SDS011;40105;52.366;17.000;2023-05-07T10:26:50;5.28;;;1.95;;
54197;SDS011;40105;52.366;17.000;2023-05-07T10:34:39;7.10;;;2.08;;
54197;SDS011;40105;52.366;17.000;2023-05-07T10:37:05;5.47;;;1.90;;
54197;SDS011;40105;52.366;17.000;2023-05-07T10:39:31;5.97;;;2.05;;
54197;SDS011;40105;52.366;17.000;2023-05-07T10:41:56;7.23;;;1.83;;
54197;SDS011;40105;52.366;17.000;2023-05-07T10:44:25;10.93;;;4.07;;
54197;SDS011;40105;52.366;17.000;2023-05-07T10:49:30;2.65;;;1.40;;
54197;SDS011;40105;52.366;17.000;2023-05-07T10:52:15;2.17;;;1.40;;
54197;SDS011;40105;52.366;17.000;2023-05-07T10:54:41;8.70;;;5.53;;
54197;SDS011;40105;52.366;17.000;2023-05-07T10:57:32;47.25;;;28.58;;
54197;SDS011;40105;52.366;17.000;2023-05-07T10:59:51;4.18;;;2.58;;
54197;SDS011;40105;52.366;17.000;2023-05-07T11:02:16;3.53;;;1.33;;
54197;SDS011;40105;52.366;17.000;2023-05-07T11:04:42;2.23;;;1.10;;
54197;SDS011;40105;52.366;17.000;2023-05-07T11:12:17;1.88;;;1.23;;
54197;SDS011;40105;52.366;17.000;2023-05-07T11:17:07;5.57;;;1.90;;
54197;SDS011;40105;52.366;17.000;2023-05-07T11:19:49;10.00;;;3.05;;
54197;SDS011;40105;52.366;17.000;2023-05-07T11:24:55;6.95;;;1.90;;
54197;SDS011;40105;52.366;17.000;2023-05-07T11:27:23;5.07;;;2.55;;
54197;SDS011;40105;52.366;17.000;2023-05-07T11:29:49;2.75;;;1.08;;
54197;SDS011;40105;52.366;17.000;2023-05-07T11:32:15;14.90;;;3.97;;
54197;SDS011;40105;52.366;17.000;2023-05-07T11:34:40;12.07;;;2.43;;
54197;SDS011;40105;52.366;17.000;2023-05-07T11:37:05;5.97;;;1.75;;
54197;SDS011;40105;52.366;17.000;2023-05-07T11:39:31;2.10;;;1.00;;
54197;SDS011;40105;52.366;17.000;2023-05-07T11:42:00;3.20;;;1.30;;
54197;SDS011;40105;52.366;17.000;2023-05-07T11:44:40;2.90;;;1.73;;
54197;SDS011;40105;52.366;17.000;2023-05-07T11:47:05;2.35;;;1.10;;
54197;SDS011;40105;52.366;17.000;2023-05-07T11:49:30;3.00;;;1.33;;
54197;SDS011;40105;52.366;17.000;2023-05-07T11:51:55;3.60;;;1.60;;
54197;SDS011;40105;52.366;17.000;2023-05-07T11:54:21;6.53;;;1.85;;
54197;SDS011;40105;52.366;17.000;2023-05-07T11:56:46;7.57;;;2.17;;
54197;SDS011;40105;52.366;17.000;2023-05-07T11:59:11;4.80;;;1.90;;
54197;SDS011;40105;52.366;17.000;2023-05-07T12:01:36;1.60;;;1.10;;
54197;SDS011;40105;52.366;17.000;2023-05-07T12:04:02;4.85;;;1.58;;
54197;SDS011;40105;52.366;17.000;2023-05-07T12:06:27;5.35;;;1.38;;
54197;SDS011;40105;52.366;17.000;2023-05-07T12:08:53;3.53;;;1.70;;
54197;SDS011;40105;52.366;17.000;2023-05-07T12:11:24;2.70;;;1.23;;
54197;SDS011;40105;52.366;17.000;2023-05-07T12:13:50;3.33;;;1.73;;
54197;SDS011;40105;52.366;17.000;2023-05-07T12:16:15;2.87;;;1.23;;
54197;SDS011;40105;52.366;17.000;2023-05-07T12:18:41;5.40;;;1.67;;
54197;SDS011;40105;52.366;17.000;2023-05-07T12:21:06;2.00;;;1.20;;
54197;SDS011;40105;52.366;17.000;2023-05-07T12:23:31;13.45;;;2.22;;
54197;SDS011;40105;52.366;17.000;2023-05-07T12:25:57;5.57;;;1.88;;
54197;SDS011;40105;52.366;17.000;2023-05-07T12:28:22;4.57;;;2.00;;
54197;SDS011;40105;52.366;17.000;2023-05-07T12:30:48;7.97;;;2.63;;
54197;SDS011;40105;52.366;17.000;2023-05-07T12:33:17;3.58;;;1.63;;
54197;SDS011;40105;52.366;17.000;2023-05-07T12:35:43;19.50;;;7.80;;
54197;SDS011;40105;52.366;17.000;2023-05-07T12:38:08;10.27;;;4.05;;
54197;SDS011;40105;52.366;17.000;2023-05-07T12:40:38;12.30;;;4.75;;
54197;SDS011;40105;52.366;17.000;2023-05-07T12:43:03;4.28;;;1.67;;
54197;SDS011;40105;52.366;17.000;2023-05-07T12:45:29;3.25;;;1.50;;
54197;SDS011;40105;52.366;17.000;2023-05-07T12:47:54;7.97;;;3.13;;
54197;SDS011;40105;52.366;17.000;2023-05-07T12:50:19;8.20;;;3.50;;
54197;SDS011;40105;52.366;17.000;2023-05-07T12:52:46;6.57;;;2.40;;
54197;SDS011;40105;52.366;17.000;2023-05-07T12:55:13;3.63;;;1.73;;
54197;SDS011;40105;52.366;17.000;2023-05-07T12:57:42;6.88;;;1.73;;
54197;SDS011;40105;52.366;17.000;2023-05-07T13:00:08;2.08;;;1.20;;
54197;SDS011;40105;52.366;17.000;2023-05-07T13:02:39;2.85;;;1.45;;
54197;SDS011;40105;52.366;17.000;2023-05-07T13:05:05;5.03;;;2.80;;
54197;SDS011;40105;52.366;17.000;2023-05-07T13:07:30;5.20;;;2.50;;
54197;SDS011;40105;52.366;17.000;2023-05-07T13:09:55;6.13;;;2.27;;
54197;SDS011;40105;52.366;17.000;2023-05-07T13:12:20;6.68;;;2.15;;
54197;SDS011;40105;52.366;17.000;2023-05-07T13:14:46;8.23;;;2.50;;
54197;SDS011;40105;52.366;17.000;2023-05-07T13:17:11;7.30;;;3.37;;
54197;SDS011;40105;52.366;17.000;2023-05-07T13:19:36;8.13;;;3.27;;
54197;SDS011;40105;52.366;17.000;2023-05-07T13:22:02;3.28;;;1.85;;
54197;SDS011;40105;52.366;17.000;2023-05-07T13:24:27;6.37;;;2.63;;
54197;SDS011;40105;52.366;17.000;2023-05-07T13:26:52;11.18;;;4.47;;
54197;SDS011;40105;52.366;17.000;2023-05-07T13:29:17;5.57;;;1.90;;
54197;SDS011;40105;52.366;17.000;2023-05-07T13:31:43;5.40;;;1.70;;
54197;SDS011;40105;52.366;17.000;2023-05-07T13:34:09;5.15;;;2.20;;
54197;SDS011;40105;52.366;17.000;2023-05-07T13:36:34;14.30;;;5.78;;
54197;SDS011;40105;52.366;17.000;2023-05-07T13:39:02;10.10;;;1.75;;
54197;SDS011;40105;52.366;17.000;2023-05-07T13:41:27;6.20;;;1.85;;
54197;SDS011;40105;52.366;17.000;2023-05-07T13:43:52;1.90;;;1.20;;
54197;SDS011;40105;52.366;17.000;2023-05-07T13:46:18;5.13;;;1.73;;
54197;SDS011;40105;52.366;17.000;2023-05-07T13:48:43;9.53;;;4.30;;
54197;SDS011;40105;52.366;17.000;2023-05-07T13:51:08;13.33;;;3.87;;
54197;SDS011;40105;52.366;17.000;2023-05-07T13:53:33;7.23;;;2.33;;
54197;SDS011;40105;52.366;17.000;2023-05-07T13:55:58;8.47;;;2.47;;
54197;SDS011;40105;52.366;17.000;2023-05-07T13:58:23;19.83;;;6.50;;
54197;SDS011;40105;52.366;17.000;2023-05-07T14:00:49;13.57;;;3.93;;
54197;SDS011;40105;52.366;17.000;2023-05-07T14:03:14;8.95;;;3.22;;
54197;SDS011;40105;52.366;17.000;2023-05-07T14:05:40;4.57;;;1.57;;
54197;SDS011;40105;52.366;17.000;2023-05-07T14:08:05;4.53;;;1.60;;
54197;SDS011;40105;52.366;17.000;2023-05-07T14:10:32;12.02;;;3.58;;
54197;SDS011;40105;52.366;17.000;2023-05-07T14:12:59;7.20;;;2.40;;
54197;SDS011;40105;52.366;17.000;2023-05-07T14:15:24;5.33;;;2.50;;
54197;SDS011;40105;52.366;17.000;2023-05-07T14:17:49;5.90;;;1.40;;
54197;SDS011;40105;52.366;17.000;2023-05-07T14:20:15;3.70;;;1.70;;
54197;SDS011;40105;52.366;17.000;2023-05-07T14:22:40;3.67;;;1.90;;
54197;SDS011;40105;52.366;17.000;2023-05-07T14:25:05;2.90;;;1.37;;
54197;SDS011;40105;52.366;17.000;2023-05-07T14:27:31;3.90;;;1.70;;
54197;SDS011;40105;52.366;17.000;2023-05-07T14:29:56;11.33;;;2.67;;
54197;SDS011;40105;52.366;17.000;2023-05-07T14:32:21;3.67;;;1.60;;
54197;SDS011;40105;52.366;17.000;2023-05-07T14:34:47;7.03;;;2.25;;
54197;SDS011;40105;52.366;17.000;2023-05-07T14:37:12;7.80;;;2.90;;
54197;SDS011;40105;52.366;17.000;2023-05-07T14:39:37;5.47;;;2.57;;